Metar GG30 METAR message from awiacja.imgw.pl Metar G30 EPSC METAR EPSC 201530Z 17012KT 9999 BKN016 BKN020 06/03 Q1014 =